sensor_id;sensor_type;location;lat;lon;timestamp;temperature;humidity
29575;DHT22;16507;51.046;6.406;2022-08-18T00:00:31;16.50;99.90
29575;DHT22;16507;51.046;6.406;2022-08-18T00:03:04;16.40;99.90
29575;DHT22;16507;51.046;6.406;2022-08-18T00:05:30;16.40;99.90
29575;DHT22;16507;51.046;6.406;2022-08-18T00:07:56;16.40;99.90
29575;DHT22;16507;51.046;6.406;2022-08-18T00:10:24;16.30;99.90
29575;DHT22;16507;51.046;6.406;2022-08-18T00:12:50;16.30;99.90
29575;DHT22;16507;51.046;6.406;2022-08-18T00:15:16;16.30;99.90
29575;DHT22;16507;51.046;6.406;2022-08-18T00:17:43;16.30;99.90
29575;DHT22;16507;51.046;6.406;2022-08-18T00:20:11;16.30;99.90
29575;DHT22;16507;51.046;6.406;2022-08-18T00:22:38;16.30;99.90
29575;DHT22;16507;51.046;6.406;2022-08-18T00:25:04;16.30;99.90
29575;DHT22;16507;51.046;6.406;2022-08-18T00:27:30;16.40;99.90
29575;DHT22;16507;51.046;6.406;2022-08-18T00:29:59;16.40;99.90
29575;DHT22;16507;51.046;6.406;2022-08-18T00:32:27;16.40;99.90
29575;DHT22;16507;51.046;6.406;2022-08-18T00:34:53;16.50;99.90
29575;DHT22;16507;51.046;6.406;2022-08-18T00:37:20;16.50;99.90
29575;DHT22;16507;51.046;6.406;2022-08-18T00:39:46;16.50;99.90
29575;DHT22;16507;51.046;6.406;2022-08-18T00:42:19;16.60;99.90
29575;DHT22;16507;51.046;6.406;2022-08-18T00:44:45;16.60;99.90
29575;DHT22;16507;51.046;6.406;2022-08-18T00:47:11;16.60;99.90
29575;DHT22;16507;51.046;6.406;2022-08-18T00:49:39;16.60;99.90
29575;DHT22;16507;51.046;6.406;2022-08-18T00:52:06;16.50;99.90
29575;DHT22;16507;51.046;6.406;2022-08-18T00:54:32;16.50;99.90
29575;DHT22;16507;51.046;6.406;2022-08-18T00:57:02;16.50;99.90
29575;DHT22;16507;51.046;6.406;2022-08-18T00:59:43;16.50;99.90
29575;DHT22;16507;51.046;6.406;2022-08-18T01:02:15;16.60;99.90
29575;DHT22;16507;51.046;6.406;2022-08-18T01:04:47;16.60;99.90
29575;DHT22;16507;51.046;6.406;2022-08-18T01:07:28;16.70;99.90
29575;DHT22;16507;51.046;6.406;2022-08-18T01:09:57;16.80;99.90
29575;DHT22;16507;51.046;6.406;2022-08-18T01:12:26;16.90;99.90
29575;DHT22;16507;51.046;6.406;2022-08-18T01:14:52;17.00;99.90
29575;DHT22;16507;51.046;6.406;2022-08-18T01:17:19;17.10;99.90
29575;DHT22;16507;51.046;6.406;2022-08-18T01:20:04;17.10;99.90
29575;DHT22;16507;51.046;6.406;2022-08-18T01:23:16;17.10;99.90
29575;DHT22;16507;51.046;6.406;2022-08-18T01:25:40;17.00;99.90
29575;DHT22;16507;51.046;6.406;2022-08-18T01:28:26;16.90;99.90
29575;DHT22;16507;51.046;6.406;2022-08-18T01:30:53;16.80;99.90
29575;DHT22;16507;51.046;6.406;2022-08-18T01:33:24;16.80;99.90
29575;DHT22;16507;51.046;6.406;2022-08-18T01:35:52;16.80;99.90
29575;DHT22;16507;51.046;6.406;2022-08-18T01:38:20;16.70;99.90
29575;DHT22;16507;51.046;6.406;2022-08-18T01:40:47;16.70;99.90
29575;DHT22;16507;51.046;6.406;2022-08-18T01:43:14;16.70;99.90
29575;DHT22;16507;51.046;6.406;2022-08-18T01:45:40;16.70;99.90
29575;DHT22;16507;51.046;6.406;2022-08-18T01:48:07;16.70;99.90
29575;DHT22;16507;51.046;6.406;2022-08-18T01:50:33;16.70;99.90
29575;DHT22;16507;51.046;6.406;2022-08-18T01:53:01;16.60;99.90
29575;DHT22;16507;51.046;6.406;2022-08-18T01:55:34;16.60;99.90
29575;DHT22;16507;51.046;6.406;2022-08-18T01:58:01;16.60;99.90
29575;DHT22;16507;51.046;6.406;2022-08-18T02:00:27;16.60;99.90
29575;DHT22;16507;51.046;6.406;2022-08-18T02:02:53;16.60;99.90
29575;DHT22;16507;51.046;6.406;2022-08-18T02:05:28;16.60;99.90
29575;DHT22;16507;51.046;6.406;2022-08-18T02:07:55;16.60;99.90
29575;DHT22;16507;51.046;6.406;2022-08-18T02:10:21;16.60;99.90
29575;DHT22;16507;51.046;6.406;2022-08-18T02:12:47;16.50;99.90
29575;DHT22;16507;51.046;6.406;2022-08-18T02:15:12;16.50;99.90
29575;DHT22;16507;51.046;6.406;2022-08-18T02:17:44;16.40;99.90
29575;DHT22;16507;51.046;6.406;2022-08-18T02:20:12;16.40;99.90
29575;DHT22;16507;51.046;6.406;2022-08-18T02:22:39;16.40;99.90
29575;DHT22;16507;51.046;6.406;2022-08-18T02:25:05;16.40;99.90
29575;DHT22;16507;51.046;6.406;2022-08-18T02:27:31;16.40;99.90
29575;DHT22;16507;51.046;6.406;2022-08-18T02:29:59;16.40;99.90
29575;DHT22;16507;51.046;6.406;2022-08-18T02:32:25;16.40;99.90
29575;DHT22;16507;51.046;6.406;2022-08-18T02:34:51;16.40;99.90
29575;DHT22;16507;51.046;6.406;2022-08-18T02:37:16;16.50;99.90
29575;DHT22;16507;51.046;6.406;2022-08-18T02:39:42;16.50;99.90
29575;DHT22;16507;51.046;6.406;2022-08-18T02:42:08;16.60;99.90
29575;DHT22;16507;51.046;6.406;2022-08-18T02:44:34;16.70;99.90
29575;DHT22;16507;51.046;6.406;2022-08-18T02:46:59;16.80;99.90
29575;DHT22;16507;51.046;6.406;2022-08-18T02:49:25;16.80;99.90
29575;DHT22;16507;51.046;6.406;2022-08-18T02:51:51;16.90;99.90
29575;DHT22;16507;51.046;6.406;2022-08-18T02:54:19;16.80;99.90
29575;DHT22;16507;51.046;6.406;2022-08-18T02:56:47;16.90;99.90
29575;DHT22;16507;51.046;6.406;2022-08-18T02:59:18;16.80;99.90
29575;DHT22;16507;51.046;6.406;2022-08-18T03:01:47;16.80;99.90
29575;DHT22;16507;51.046;6.406;2022-08-18T03:04:19;16.90;99.90
29575;DHT22;16507;51.046;6.406;2022-08-18T03:06:46;16.80;99.90
29575;DHT22;16507;51.046;6.406;2022-08-18T03:09:14;16.90;99.90
29575;DHT22;16507;51.046;6.406;2022-08-18T03:11:40;17.00;99.90
29575;DHT22;16507;51.046;6.406;2022-08-18T03:14:06;17.00;99.90
29575;DHT22;16507;51.046;6.406;2022-08-18T03:16:32;17.00;99.90
29575;DHT22;16507;51.046;6.406;2022-08-18T03:19:00;17.00;99.90
29575;DHT22;16507;51.046;6.406;2022-08-18T03:21:28;17.10;99.90
29575;DHT22;16507;51.046;6.406;2022-08-18T03:23:54;17.10;99.90
29575;DHT22;16507;51.046;6.406;2022-08-18T03:26:22;17.10;99.90
29575;DHT22;16507;51.046;6.406;2022-08-18T03:28:51;17.10;99.90
29575;DHT22;16507;51.046;6.406;2022-08-18T03:31:18;17.20;99.90
29575;DHT22;16507;51.046;6.406;2022-08-18T03:33:45;17.20;99.90
29575;DHT22;16507;51.046;6.406;2022-08-18T03:36:14;17.20;99.90
29575;DHT22;16507;51.046;6.406;2022-08-18T03:38:41;17.20;99.90
29575;DHT22;16507;51.046;6.406;2022-08-18T03:41:09;17.30;99.90
29575;DHT22;16507;51.046;6.406;2022-08-18T03:43:35;17.30;99.90
29575;DHT22;16507;51.046;6.406;2022-08-18T03:46:05;17.30;99.90
29575;DHT22;16507;51.046;6.406;2022-08-18T03:48:32;17.30;99.90
29575;DHT22;16507;51.046;6.406;2022-08-18T03:51:10;17.30;99.90
29575;DHT22;16507;51.046;6.406;2022-08-18T03:53:37;17.20;99.90
29575;DHT22;16507;51.046;6.406;2022-08-18T03:56:09;17.30;99.90
29575;DHT22;16507;51.046;6.406;2022-08-18T03:59:14;17.30;99.90
29575;DHT22;16507;51.046;6.406;2022-08-18T04:01:38;17.20;99.90
29575;DHT22;16507;51.046;6.406;2022-08-18T04:04:06;17.30;99.90
29575;DHT22;16507;51.046;6.406;2022-08-18T04:06:37;17.20;99.90
29575;DHT22;16507;51.046;6.406;2022-08-18T04:09:05;17.20;99.90
29575;DHT22;16507;51.046;6.406;2022-08-18T04:11:32;17.20;99.90
29575;DHT22;16507;51.046;6.406;2022-08-18T04:13:58;17.10;99.90
29575;DHT22;16507;51.046;6.406;2022-08-18T04:16:25;17.00;99.90
29575;DHT22;16507;51.046;6.406;2022-08-18T04:18:51;17.10;99.90
29575;DHT22;16507;51.046;6.406;2022-08-18T04:21:17;17.00;99.90
29575;DHT22;16507;51.046;6.406;2022-08-18T04:23:43;17.00;99.90
29575;DHT22;16507;51.046;6.406;2022-08-18T04:26:10;17.00;99.90
29575;DHT22;16507;51.046;6.406;2022-08-18T04:28:38;17.00;99.90
29575;DHT22;16507;51.046;6.406;2022-08-18T04:31:10;17.10;99.90
29575;DHT22;16507;51.046;6.406;2022-08-18T04:33:37;17.10;99.90
29575;DHT22;16507;51.046;6.406;2022-08-18T04:36:09;17.10;99.90
29575;DHT22;16507;51.046;6.406;2022-08-18T04:38:35;17.10;99.90
29575;DHT22;16507;51.046;6.406;2022-08-18T04:41:01;17.10;99.90
29575;DHT22;16507;51.046;6.406;2022-08-18T04:43:28;17.20;99.90
29575;DHT22;16507;51.046;6.406;2022-08-18T04:45:55;17.20;99.90
29575;DHT22;16507;51.046;6.406;2022-08-18T04:48:28;17.30;99.90
29575;DHT22;16507;51.046;6.406;2022-08-18T04:51:02;17.30;99.90
29575;DHT22;16507;51.046;6.406;2022-08-18T04:53:27;17.30;99.90
29575;DHT22;16507;51.046;6.406;2022-08-18T04:56:24;17.40;99.90
29575;DHT22;16507;51.046;6.406;2022-08-18T04:58:57;17.30;99.90
29575;DHT22;16507;51.046;6.406;2022-08-18T05:01:28;17.40;99.90
29575;DHT22;16507;51.046;6.406;2022-08-18T05:03:55;17.40;99.90
29575;DHT22;16507;51.046;6.406;2022-08-18T05:06:24;17.50;99.90
29575;DHT22;16507;51.046;6.406;2022-08-18T05:08:54;17.40;99.90
29575;DHT22;16507;51.046;6.406;2022-08-18T05:11:22;17.50;99.90
29575;DHT22;16507;51.046;6.406;2022-08-18T05:13:49;17.50;99.90
29575;DHT22;16507;51.046;6.406;2022-08-18T05:16:16;17.40;99.90
29575;DHT22;16507;51.046;6.406;2022-08-18T05:18:42;17.40;99.90
29575;DHT22;16507;51.046;6.406;2022-08-18T05:21:08;17.40;99.90
29575;DHT22;16507;51.046;6.406;2022-08-18T05:23:39;17.50;99.90
29575;DHT22;16507;51.046;6.406;2022-08-18T05:26:05;17.50;99.90
29575;DHT22;16507;51.046;6.406;2022-08-18T05:28:32;17.50;99.90
29575;DHT22;16507;51.046;6.406;2022-08-18T05:31:18;17.50;99.90
29575;DHT22;16507;51.046;6.406;2022-08-18T05:33:45;17.60;99.90
29575;DHT22;16507;51.046;6.406;2022-08-18T05:41:37;17.70;99.90
29575;DHT22;16507;51.046;6.406;2022-08-18T05:44:07;17.80;99.90
29575;DHT22;16507;51.046;6.406;2022-08-18T05:49:05;17.80;99.90
29575;DHT22;16507;51.046;6.406;2022-08-18T05:51:37;17.90;99.90
29575;DHT22;16507;51.046;6.406;2022-08-18T05:54:05;18.00;99.90
29575;DHT22;16507;51.046;6.406;2022-08-18T05:56:51;18.00;99.90
29575;DHT22;16507;51.046;6.406;2022-08-18T05:59:31;18.00;99.90
29575;DHT22;16507;51.046;6.406;2022-08-18T06:04:57;18.00;99.90
29575;DHT22;16507;51.046;6.406;2022-08-18T06:07:33;18.00;99.90
29575;DHT22;16507;51.046;6.406;2022-08-18T06:10:01;18.10;99.90
29575;DHT22;16507;51.046;6.406;2022-08-18T06:20:22;18.10;99.90
29575;DHT22;16507;51.046;6.406;2022-08-18T06:28:20;18.10;99.90
29575;DHT22;16507;51.046;6.406;2022-08-18T06:30:59;18.20;99.90
29575;DHT22;16507;51.046;6.406;2022-08-18T06:33:52;18.20;99.90
29575;DHT22;16507;51.046;6.406;2022-08-18T06:36:45;18.20;99.90
29575;DHT22;16507;51.046;6.406;2022-08-18T06:39:30;18.20;99.90
29575;DHT22;16507;51.046;6.406;2022-08-18T06:41:59;18.30;99.90
29575;DHT22;16507;51.046;6.406;2022-08-18T06:44:52;18.30;99.90
29575;DHT22;16507;51.046;6.406;2022-08-18T06:50:25;18.30;99.90
29575;DHT22;16507;51.046;6.406;2022-08-18T06:52:56;18.30;99.90
29575;DHT22;16507;51.046;6.406;2022-08-18T06:55:33;18.40;99.90
29575;DHT22;16507;51.046;6.406;2022-08-18T06:58:24;18.40;99.90
29575;DHT22;16507;51.046;6.406;2022-08-18T07:03:18;18.50;99.90
29575;DHT22;16507;51.046;6.406;2022-08-18T07:06:09;18.50;99.90
29575;DHT22;16507;51.046;6.406;2022-08-18T07:08:43;18.50;99.90
29575;DHT22;16507;51.046;6.406;2022-08-18T07:13:48;18.50;99.90
29575;DHT22;16507;51.046;6.406;2022-08-18T07:18:51;18.60;99.90
29575;DHT22;16507;51.046;6.406;2022-08-18T07:21:30;18.60;99.90
29575;DHT22;16507;51.046;6.406;2022-08-18T07:27:09;18.60;99.90
29575;DHT22;16507;51.046;6.406;2022-08-18T07:29:40;18.50;99.90
29575;DHT22;16507;51.046;6.406;2022-08-18T07:32:22;18.60;99.90
29575;DHT22;16507;51.046;6.406;2022-08-18T07:34:51;18.60;99.90
29575;DHT22;16507;51.046;6.406;2022-08-18T07:37:34;18.60;99.90
29575;DHT22;16507;51.046;6.406;2022-08-18T07:40:06;18.60;99.90
29575;DHT22;16507;51.046;6.406;2022-08-18T07:42:50;18.60;99.90
29575;DHT22;16507;51.046;6.406;2022-08-18T07:45:31;18.50;99.90
29575;DHT22;16507;51.046;6.406;2022-08-18T07:53:49;18.80;99.90
29575;DHT22;16507;51.046;6.406;2022-08-18T07:56:22;18.80;99.90
29575;DHT22;16507;51.046;6.406;2022-08-18T07:58:56;18.80;99.90
29575;DHT22;16507;51.046;6.406;2022-08-18T08:07:13;19.10;99.90
29575;DHT22;16507;51.046;6.406;2022-08-18T08:10:25;19.10;99.90
29575;DHT22;16507;51.046;6.406;2022-08-18T08:12:57;19.10;99.90
29575;DHT22;16507;51.046;6.406;2022-08-18T08:21:10;19.30;99.90
29575;DHT22;16507;51.046;6.406;2022-08-18T08:24:26;19.30;99.90
29575;DHT22;16507;51.046;6.406;2022-08-18T08:27:04;19.50;99.90
29575;DHT22;16507;51.046;6.406;2022-08-18T08:32:36;19.70;99.90
29575;DHT22;16507;51.046;6.406;2022-08-18T08:35:18;19.70;99.90
29575;DHT22;16507;51.046;6.406;2022-08-18T08:37:57;19.80;99.90
29575;DHT22;16507;51.046;6.406;2022-08-18T08:40:46;19.80;99.90
29575;DHT22;16507;51.046;6.406;2022-08-18T08:43:17;20.00;99.90
29575;DHT22;16507;51.046;6.406;2022-08-18T08:48:48;20.00;99.90
29575;DHT22;16507;51.046;6.406;2022-08-18T08:51:33;20.00;99.90
29575;DHT22;16507;51.046;6.406;2022-08-18T08:56:45;20.00;99.90
29575;DHT22;16507;51.046;6.406;2022-08-18T08:59:16;20.10;99.90
29575;DHT22;16507;51.046;6.406;2022-08-18T09:04:56;20.80;99.90
29575;DHT22;16507;51.046;6.406;2022-08-18T09:13:27;21.30;99.90
29575;DHT22;16507;51.046;6.406;2022-08-18T09:22:00;21.60;99.90
29575;DHT22;16507;51.046;6.406;2022-08-18T09:24:31;21.80;99.90
29575;DHT22;16507;51.046;6.406;2022-08-18T09:27:15;21.80;99.90
29575;DHT22;16507;51.046;6.406;2022-08-18T09:29:56;22.20;99.90
29575;DHT22;16507;51.046;6.406;2022-08-18T09:37:54;22.30;99.90
29575;DHT22;16507;51.046;6.406;2022-08-18T09:40:55;22.40;99.90
29575;DHT22;16507;51.046;6.406;2022-08-18T09:44:04;22.70;99.90
29575;DHT22;16507;51.046;6.406;2022-08-18T09:51:56;22.50;99.90
29575;DHT22;16507;51.046;6.406;2022-08-18T09:54:28;22.40;99.90
29575;DHT22;16507;51.046;6.406;2022-08-18T09:56:56;22.30;99.90
29575;DHT22;16507;51.046;6.406;2022-08-18T10:01:57;22.50;99.90
29575;DHT22;16507;51.046;6.406;2022-08-18T10:04:35;22.80;99.90
29575;DHT22;16507;51.046;6.406;2022-08-18T10:18:51;23.30;99.90
29575;DHT22;16507;51.046;6.406;2022-08-18T10:21:21;23.10;99.90
29575;DHT22;16507;51.046;6.406;2022-08-18T10:24:16;23.00;99.90
29575;DHT22;16507;51.046;6.406;2022-08-18T10:34:43;23.10;99.90
29575;DHT22;16507;51.046;6.406;2022-08-18T10:39:48;23.70;99.90
29575;DHT22;16507;51.046;6.406;2022-08-18T10:42:38;23.80;99.90
29575;DHT22;16507;51.046;6.406;2022-08-18T10:53:27;23.70;99.90
29575;DHT22;16507;51.046;6.406;2022-08-18T10:58:51;23.90;99.90
29575;DHT22;16507;51.046;6.406;2022-08-18T11:04:34;23.80;99.90
29575;DHT22;16507;51.046;6.406;2022-08-18T11:07:26;23.70;99.90
29575;DHT22;16507;51.046;6.406;2022-08-18T11:09:54;23.80;99.90
29575;DHT22;16507;51.046;6.406;2022-08-18T11:20:54;23.40;99.90
29575;DHT22;16507;51.046;6.406;2022-08-18T11:23:38;23.30;99.90
29575;DHT22;16507;51.046;6.406;2022-08-18T11:26:14;23.30;99.90
29575;DHT22;16507;51.046;6.406;2022-08-18T11:28:41;23.40;99.90
29575;DHT22;16507;51.046;6.406;2022-08-18T11:31:06;23.40;99.90
29575;DHT22;16507;51.046;6.406;2022-08-18T11:33:32;23.40;99.90
29575;DHT22;16507;51.046;6.406;2022-08-18T11:35:58;23.40;99.90
29575;DHT22;16507;51.046;6.406;2022-08-18T11:38:27;23.30;99.90
29575;DHT22;16507;51.046;6.406;2022-08-18T11:41:17;23.20;99.90
29575;DHT22;16507;51.046;6.406;2022-08-18T11:43:43;23.40;99.90
29575;DHT22;16507;51.046;6.406;2022-08-18T11:46:29;23.40;99.90
29575;DHT22;16507;51.046;6.406;2022-08-18T11:48:55;23.20;99.90
29575;DHT22;16507;51.046;6.406;2022-08-18T11:51:24;23.20;99.90
29575;DHT22;16507;51.046;6.406;2022-08-18T11:53:54;23.30;99.90
29575;DHT22;16507;51.046;6.406;2022-08-18T11:56:33;23.20;99.90
29575;DHT22;16507;51.046;6.406;2022-08-18T11:59:03;23.10;99.90
29575;DHT22;16507;51.046;6.406;2022-08-18T12:06:55;23.30;99.90
29575;DHT22;16507;51.046;6.406;2022-08-18T12:09:43;23.60;99.90
29575;DHT22;16507;51.046;6.406;2022-08-18T12:12:25;23.90;99.90
29575;DHT22;16507;51.046;6.406;2022-08-18T12:17:20;24.50;99.90
29575;DHT22;16507;51.046;6.406;2022-08-18T12:19:46;24.50;99.90
29575;DHT22;16507;51.046;6.406;2022-08-18T12:22:21;24.60;99.90
29575;DHT22;16507;51.046;6.406;2022-08-18T12:24:47;24.50;99.90
29575;DHT22;16507;51.046;6.406;2022-08-18T12:27:15;24.20;99.90
29575;DHT22;16507;51.046;6.406;2022-08-18T12:29:42;23.90;99.90
29575;DHT22;16507;51.046;6.406;2022-08-18T12:32:08;23.70;99.90
29575;DHT22;16507;51.046;6.406;2022-08-18T12:34:34;24.00;99.90
29575;DHT22;16507;51.046;6.406;2022-08-18T12:37:00;24.10;99.90
29575;DHT22;16507;51.046;6.406;2022-08-18T12:39:26;24.20;99.90
29575;DHT22;16507;51.046;6.406;2022-08-18T12:41:53;24.10;99.90
29575;DHT22;16507;51.046;6.406;2022-08-18T12:44:19;24.10;99.90
29575;DHT22;16507;51.046;6.406;2022-08-18T12:46:44;24.20;99.90
29575;DHT22;16507;51.046;6.406;2022-08-18T12:49:23;24.20;99.90
29575;DHT22;16507;51.046;6.406;2022-08-18T12:51:50;24.30;99.90
29575;DHT22;16507;51.046;6.406;2022-08-18T12:54:19;24.10;99.90
29575;DHT22;16507;51.046;6.406;2022-08-18T12:56:47;24.10;99.90
29575;DHT22;16507;51.046;6.406;2022-08-18T12:59:14;24.20;99.90
29575;DHT22;16507;51.046;6.406;2022-08-18T13:01:40;24.20;99.90
29575;DHT22;16507;51.046;6.406;2022-08-18T13:04:06;24.30;99.90
29575;DHT22;16507;51.046;6.406;2022-08-18T13:06:35;24.10;99.90
29575;DHT22;16507;51.046;6.406;2022-08-18T13:09:03;24.20;99.90
29575;DHT22;16507;51.046;6.406;2022-08-18T13:11:28;24.20;99.90
29575;DHT22;16507;51.046;6.406;2022-08-18T13:13:55;24.30;99.90
29575;DHT22;16507;51.046;6.406;2022-08-18T13:16:21;24.60;99.90
29575;DHT22;16507;51.046;6.406;2022-08-18T13:18:47;24.90;99.90
29575;DHT22;16507;51.046;6.406;2022-08-18T13:21:15;25.20;99.90
29575;DHT22;16507;51.046;6.406;2022-08-18T13:23:41;25.00;99.90
29575;DHT22;16507;51.046;6.406;2022-08-18T13:26:14;25.20;99.90
29575;DHT22;16507;51.046;6.406;2022-08-18T13:28:41;25.10;99.90
29575;DHT22;16507;51.046;6.406;2022-08-18T13:31:07;25.10;99.90
29575;DHT22;16507;51.046;6.406;2022-08-18T13:33:33;25.10;99.90
29575;DHT22;16507;51.046;6.406;2022-08-18T13:35:59;25.20;99.90
29575;DHT22;16507;51.046;6.406;2022-08-18T13:38:25;25.40;99.90
29575;DHT22;16507;51.046;6.406;2022-08-18T13:40:56;25.60;99.90
29575;DHT22;16507;51.046;6.406;2022-08-18T13:43:28;25.90;99.90
29575;DHT22;16507;51.046;6.406;2022-08-18T13:45:54;26.50;99.90
29575;DHT22;16507;51.046;6.406;2022-08-18T13:48:20;26.80;99.90
29575;DHT22;16507;51.046;6.406;2022-08-18T13:50:46;26.60;99.90
29575;DHT22;16507;51.046;6.406;2022-08-18T13:53:15;26.40;99.90
29575;DHT22;16507;51.046;6.406;2022-08-18T13:55:44;25.80;99.90
29575;DHT22;16507;51.046;6.406;2022-08-18T13:58:09;25.70;99.90
29575;DHT22;16507;51.046;6.406;2022-08-18T14:00:35;25.90;99.90
29575;DHT22;16507;51.046;6.406;2022-08-18T14:03:01;26.20;99.90
29575;DHT22;16507;51.046;6.406;2022-08-18T14:05:26;26.40;99.90
29575;DHT22;16507;51.046;6.406;2022-08-18T14:07:53;26.20;99.90
29575;DHT22;16507;51.046;6.406;2022-08-18T14:10:19;26.00;99.90
29575;DHT22;16507;51.046;6.406;2022-08-18T14:12:45;25.80;99.90
29575;DHT22;16507;51.046;6.406;2022-08-18T14:15:13;26.00;99.90
29575;DHT22;16507;51.046;6.406;2022-08-18T14:17:39;26.30;99.90
29575;DHT22;16507;51.046;6.406;2022-08-18T14:20:07;26.70;99.90
29575;DHT22;16507;51.046;6.406;2022-08-18T14:22:53;27.20;91.80
29575;DHT22;16507;51.046;6.406;2022-08-18T14:25:38;27.30;93.60
29575;DHT22;16507;51.046;6.406;2022-08-18T14:28:23;27.40;93.40
29575;DHT22;16507;51.046;6.406;2022-08-18T14:30:49;27.60;89.80
29575;DHT22;16507;51.046;6.406;2022-08-18T14:33:19;27.40;90.00
29575;DHT22;16507;51.046;6.406;2022-08-18T14:35:46;27.70;89.20
29575;DHT22;16507;51.046;6.406;2022-08-18T14:38:12;27.70;89.70
29575;DHT22;16507;51.046;6.406;2022-08-18T14:40:39;27.40;90.10
29575;DHT22;16507;51.046;6.406;2022-08-18T14:43:06;27.30;90.90
29575;DHT22;16507;51.046;6.406;2022-08-18T14:45:31;27.50;89.50
29575;DHT22;16507;51.046;6.406;2022-08-18T14:47:58;26.90;87.50
29575;DHT22;16507;51.046;6.406;2022-08-18T14:50:24;27.00;90.30
29575;DHT22;16507;51.046;6.406;2022-08-18T14:52:51;27.50;91.30
29575;DHT22;16507;51.046;6.406;2022-08-18T14:55:17;27.70;87.50
29575;DHT22;16507;51.046;6.406;2022-08-18T14:57:43;27.80;87.70
29575;DHT22;16507;51.046;6.406;2022-08-18T15:00:13;27.60;84.40
29575;DHT22;16507;51.046;6.406;2022-08-18T15:02:43;27.80;87.40
29575;DHT22;16507;51.046;6.406;2022-08-18T15:05:10;27.70;91.20
29575;DHT22;16507;51.046;6.406;2022-08-18T15:07:36;27.70;88.00
29575;DHT22;16507;51.046;6.406;2022-08-18T15:10:04;27.90;88.80
29575;DHT22;16507;51.046;6.406;2022-08-18T15:12:30;28.10;85.50
29575;DHT22;16507;51.046;6.406;2022-08-18T15:14:55;28.30;85.30
29575;DHT22;16507;51.046;6.406;2022-08-18T15:17:22;28.30;88.10
29575;DHT22;16507;51.046;6.406;2022-08-18T15:19:48;28.30;86.00
29575;DHT22;16507;51.046;6.406;2022-08-18T15:22:14;28.30;84.20
29575;DHT22;16507;51.046;6.406;2022-08-18T15:24:58;28.30;83.50
29575;DHT22;16507;51.046;6.406;2022-08-18T15:27:42;28.50;80.60
29575;DHT22;16507;51.046;6.406;2022-08-18T15:30:11;28.50;81.70
29575;DHT22;16507;51.046;6.406;2022-08-18T15:32:38;28.50;78.80
29575;DHT22;16507;51.046;6.406;2022-08-18T15:35:05;28.30;77.70
29575;DHT22;16507;51.046;6.406;2022-08-18T15:37:33;28.00;77.60
29575;DHT22;16507;51.046;6.406;2022-08-18T15:40:07;27.80;77.80
29575;DHT22;16507;51.046;6.406;2022-08-18T15:42:37;28.00;82.00
29575;DHT22;16507;51.046;6.406;2022-08-18T15:45:04;28.20;83.40
29575;DHT22;16507;51.046;6.406;2022-08-18T15:47:30;27.70;79.10
29575;DHT22;16507;51.046;6.406;2022-08-18T15:50:00;27.10;83.30
29575;DHT22;16507;51.046;6.406;2022-08-18T15:52:26;26.80;88.70
29575;DHT22;16507;51.046;6.406;2022-08-18T15:54:52;26.80;90.80
29575;DHT22;16507;51.046;6.406;2022-08-18T15:57:18;26.80;88.10
29575;DHT22;16507;51.046;6.406;2022-08-18T15:59:44;26.70;91.90
29575;DHT22;16507;51.046;6.406;2022-08-18T16:02:10;26.50;93.30
29575;DHT22;16507;51.046;6.406;2022-08-18T16:04:38;26.40;96.30
29575;DHT22;16507;51.046;6.406;2022-08-18T16:07:05;26.40;98.30
29575;DHT22;16507;51.046;6.406;2022-08-18T16:09:31;26.50;94.90
29575;DHT22;16507;51.046;6.406;2022-08-18T16:11:56;26.60;95.20
29575;DHT22;16507;51.046;6.406;2022-08-18T16:14:22;26.60;91.80
29575;DHT22;16507;51.046;6.406;2022-08-18T16:16:48;26.40;92.80
29575;DHT22;16507;51.046;6.406;2022-08-18T16:19:15;26.30;93.30
29575;DHT22;16507;51.046;6.406;2022-08-18T16:21:41;26.20;94.30
29575;DHT22;16507;51.046;6.406;2022-08-18T16:24:07;26.10;93.10
29575;DHT22;16507;51.046;6.406;2022-08-18T16:26:33;26.20;91.00
29575;DHT22;16507;51.046;6.406;2022-08-18T16:28:58;26.20;92.40
29575;DHT22;16507;51.046;6.406;2022-08-18T16:31:24;26.20;91.60
29575;DHT22;16507;51.046;6.406;2022-08-18T16:33:55;26.20;92.80
29575;DHT22;16507;51.046;6.406;2022-08-18T16:36:22;26.30;91.20
29575;DHT22;16507;51.046;6.406;2022-08-18T16:38:50;26.50;91.60
29575;DHT22;16507;51.046;6.406;2022-08-18T16:41:16;26.70;91.20
29575;DHT22;16507;51.046;6.406;2022-08-18T16:43:43;26.70;90.00
29575;DHT22;16507;51.046;6.406;2022-08-18T16:46:21;26.50;90.20
29575;DHT22;16507;51.046;6.406;2022-08-18T16:48:48;26.60;91.10
29575;DHT22;16507;51.046;6.406;2022-08-18T16:51:16;26.50;91.30
29575;DHT22;16507;51.046;6.406;2022-08-18T16:53:43;26.40;93.30
29575;DHT22;16507;51.046;6.406;2022-08-18T16:56:17;26.30;93.60
29575;DHT22;16507;51.046;6.406;2022-08-18T16:58:43;26.10;96.50
29575;DHT22;16507;51.046;6.406;2022-08-18T17:01:28;26.10;96.00
29575;DHT22;16507;51.046;6.406;2022-08-18T17:04:15;26.00;95.60
29575;DHT22;16507;51.046;6.406;2022-08-18T17:06:42;26.00;97.30
29575;DHT22;16507;51.046;6.406;2022-08-18T17:09:08;25.90;95.70
29575;DHT22;16507;51.046;6.406;2022-08-18T17:11:35;26.00;97.10
29575;DHT22;16507;51.046;6.406;2022-08-18T17:14:02;26.00;96.80
29575;DHT22;16507;51.046;6.406;2022-08-18T17:16:29;25.90;97.40
29575;DHT22;16507;51.046;6.406;2022-08-18T17:18:55;25.90;99.70
29575;DHT22;16507;51.046;6.406;2022-08-18T17:21:26;25.80;97.90
29575;DHT22;16507;51.046;6.406;2022-08-18T17:23:52;25.70;99.70
29575;DHT22;16507;51.046;6.406;2022-08-18T17:26:28;25.60;99.90
29575;DHT22;16507;51.046;6.406;2022-08-18T17:29:02;25.50;99.90
29575;DHT22;16507;51.046;6.406;2022-08-18T17:31:30;25.40;99.90
29575;DHT22;16507;51.046;6.406;2022-08-18T17:34:08;25.40;99.90
29575;DHT22;16507;51.046;6.406;2022-08-18T17:36:54;25.20;99.90
29575;DHT22;16507;51.046;6.406;2022-08-18T17:39:31;25.00;99.90
29575;DHT22;16507;51.046;6.406;2022-08-18T17:41:57;25.00;99.90
29575;DHT22;16507;51.046;6.406;2022-08-18T17:44:43;24.80;99.90
29575;DHT22;16507;51.046;6.406;2022-08-18T17:47:09;24.80;99.90
29575;DHT22;16507;51.046;6.406;2022-08-18T17:49:42;24.70;99.90
29575;DHT22;16507;51.046;6.406;2022-08-18T17:52:31;24.70;99.90
29575;DHT22;16507;51.046;6.406;2022-08-18T17:55:07;24.60;99.90
29575;DHT22;16507;51.046;6.406;2022-08-18T17:57:36;24.60;99.90
29575;DHT22;16507;51.046;6.406;2022-08-18T18:00:09;24.60;99.90
29575;DHT22;16507;51.046;6.406;2022-08-18T18:02:40;24.60;99.90
29575;DHT22;16507;51.046;6.406;2022-08-18T18:05:10;24.50;99.90
29575;DHT22;16507;51.046;6.406;2022-08-18T18:07:57;24.50;99.90
29575;DHT22;16507;51.046;6.406;2022-08-18T18:10:37;24.40;99.90
29575;DHT22;16507;51.046;6.406;2022-08-18T18:15:41;24.30;99.90
29575;DHT22;16507;51.046;6.406;2022-08-18T18:21:05;24.20;99.90
29575;DHT22;16507;51.046;6.406;2022-08-18T18:23:37;24.10;99.90